createdAt,value
2023-02-02T00:02:10.171Z,4.37
2023-02-02T00:04:38.852Z,4.36
2023-02-02T00:07:07.567Z,4.35
2023-02-02T00:09:36.091Z,4.34
2023-02-02T00:12:06.551Z,4.44
2023-02-02T00:14:35.255Z,4.35
2023-02-02T00:17:04.904Z,4.42
2023-02-02T00:19:33.522Z,4.38
2023-02-02T00:22:02.151Z,4.33
2023-02-02T00:24:31.137Z,4.28
2023-02-02T00:27:01.370Z,4.34
2023-02-02T00:29:32.579Z,4.33
2023-02-02T00:32:01.084Z,4.32
2023-02-02T00:34:29.802Z,4.34
2023-02-02T00:36:58.285Z,4.33
2023-02-02T00:39:27.726Z,4.28
2023-02-02T00:41:56.369Z,4.34
2023-02-02T00:44:42.613Z,4.33
2023-02-02T00:47:12.799Z,4.27
2023-02-02T00:49:41.369Z,4.25
2023-02-02T00:52:09.967Z,4.22
2023-02-02T00:54:38.417Z,4.25
2023-02-02T00:57:07.053Z,4.24
2023-02-02T00:59:35.641Z,4.31
2023-02-02T01:02:04.217Z,4.38
2023-02-02T01:04:34.045Z,4.40
2023-02-02T01:07:02.547Z,4.34
2023-02-02T01:09:31.216Z,4.30
2023-02-02T01:11:59.799Z,4.30
2023-02-02T01:14:28.199Z,4.29
2023-02-02T01:16:56.749Z,4.33
2023-02-02T01:19:25.573Z,4.31
2023-02-02T01:21:55.409Z,4.26
2023-02-02T01:24:24.096Z,4.28
2023-02-02T01:26:52.619Z,4.39
2023-02-02T01:29:21.062Z,4.48
2023-02-02T01:31:50.015Z,4.44
2023-02-02T01:34:21.556Z,4.43
2023-02-02T01:36:50.308Z,4.48
2023-02-02T01:39:20.247Z,4.49
2023-02-02T01:41:49.539Z,4.51
2023-02-02T01:44:55.328Z,4.52
2023-02-02T01:47:27.976Z,4.63
2023-02-02T01:49:57.093Z,4.67
2023-02-02T01:52:29.127Z,4.78
2023-02-02T01:55:04.285Z,4.71
2023-02-02T01:57:37.161Z,4.80
2023-02-02T02:00:09.586Z,4.85
2023-02-02T02:02:40.221Z,4.89
2023-02-02T02:05:10.754Z,4.99
2023-02-02T02:07:43.347Z,5.02
2023-02-02T02:10:13.446Z,5.06
2023-02-02T02:12:41.973Z,5.07
2023-02-02T02:15:29.349Z,5.02
2023-02-02T02:18:08.544Z,5.11
2023-02-02T02:21:42.515Z,5.09
2023-02-02T02:25:15.331Z,5.08
2023-02-02T02:28:24.644Z,5.05
2023-02-02T02:31:35.446Z,5.14
2023-02-02T02:34:10.915Z,5.11
2023-02-02T02:36:49.326Z,5.13
2023-02-02T02:39:26.366Z,5.15
2023-02-02T02:42:00.109Z,5.13
2023-02-02T02:44:32.588Z,5.17
2023-02-02T02:47:02.017Z,5.30
2023-02-02T02:49:31.948Z,5.25
2023-02-02T02:52:00.462Z,5.27
2023-02-02T02:54:32.509Z,5.25
2023-02-02T02:57:15.065Z,5.26
2023-02-02T02:59:56.864Z,5.21
2023-02-02T03:02:37.369Z,5.30
2023-02-02T03:05:23.096Z,5.26
2023-02-02T03:07:59.572Z,5.27
2023-02-02T03:10:31.497Z,5.21
2023-02-02T03:13:00.117Z,5.23
2023-02-02T03:15:28.689Z,5.19
2023-02-02T03:17:57.291Z,5.18
2023-02-02T03:20:27.643Z,5.16
2023-02-02T03:22:56.322Z,5.20
2023-02-02T03:25:25.098Z,5.17
2023-02-02T03:27:54.733Z,5.12
2023-02-02T03:30:23.683Z,5.13
2023-02-02T03:32:53.830Z,5.07
2023-02-02T03:35:22.577Z,5.17
2023-02-02T03:37:53.188Z,5.08
2023-02-02T03:40:21.696Z,5.02
2023-02-02T03:42:50.210Z,4.97
2023-02-02T03:45:18.889Z,4.95
2023-02-02T03:47:47.547Z,5.03
2023-02-02T03:50:16.454Z,5.02
2023-02-02T03:52:44.886Z,4.98
2023-02-02T03:55:14.774Z,4.96
2023-02-02T03:57:43.367Z,4.99
2023-02-02T04:00:12.853Z,5.00
2023-02-02T04:02:41.423Z,4.96
2023-02-02T04:05:09.949Z,4.96
2023-02-02T04:07:38.600Z,4.98
2023-02-02T04:10:07.702Z,4.95
2023-02-02T04:12:37.572Z,4.93
2023-02-02T04:15:07.336Z,4.95
2023-02-02T04:17:36.295Z,5.03
2023-02-02T04:20:05.226Z,5.08
2023-02-02T04:22:34.555Z,5.03
2023-02-02T04:25:03.042Z,5.16
2023-02-02T04:27:33.815Z,5.10
2023-02-02T04:30:03.945Z,5.18
2023-02-02T04:32:32.423Z,5.13
2023-02-02T04:35:00.959Z,5.07
2023-02-02T04:37:31.758Z,5.15
2023-02-02T04:40:00.371Z,5.14
2023-02-02T04:42:29.293Z,5.11
2023-02-02T04:44:57.801Z,5.12
2023-02-02T04:47:27.668Z,5.14
2023-02-02T04:49:56.129Z,5.21
2023-02-02T04:52:24.811Z,5.25
2023-02-02T04:54:53.475Z,5.29
2023-02-02T04:57:21.953Z,5.33
2023-02-02T04:59:50.434Z,5.44
2023-02-02T05:02:19.501Z,5.36
2023-02-02T05:04:49.474Z,5.47
2023-02-02T05:07:17.916Z,5.49
2023-02-02T05:09:46.559Z,5.54
2023-02-02T05:12:15.033Z,5.60
2023-02-02T05:14:43.463Z,5.68
2023-02-02T05:17:12.039Z,5.65
2023-02-02T05:19:40.475Z,5.68
2023-02-02T05:22:10.274Z,5.71
2023-02-02T05:24:38.704Z,5.75
2023-02-02T05:27:07.293Z,5.69
2023-02-02T05:29:35.860Z,5.82
2023-02-02T05:32:04.583Z,5.77
2023-02-02T05:34:32.995Z,5.69
2023-02-02T05:37:01.414Z,5.67
2023-02-02T05:39:31.139Z,5.75
2023-02-02T05:41:59.929Z,5.79
2023-02-02T05:44:29.451Z,5.73
2023-02-02T05:46:57.901Z,5.86
2023-02-02T05:49:26.579Z,5.78
2023-02-02T05:51:58.028Z,5.80
2023-02-02T05:54:26.599Z,5.73
2023-02-02T05:56:57.345Z,5.78
2023-02-02T05:59:26.817Z,5.81
2023-02-02T06:01:55.414Z,5.78
2023-02-02T06:04:24.009Z,5.82
2023-02-02T06:06:52.495Z,5.76
2023-02-02T06:09:20.913Z,5.74
2023-02-02T06:11:49.632Z,5.81
2023-02-02T06:14:20.802Z,5.87
2023-02-02T06:16:49.173Z,5.84
2023-02-02T06:19:17.757Z,5.83
2023-02-02T06:21:46.547Z,5.86
2023-02-02T06:24:15.572Z,5.86
2023-02-02T06:26:44.071Z,5.80
2023-02-02T06:29:13.620Z,5.75
2023-02-02T06:31:43.429Z,5.80
2023-02-02T06:34:14.567Z,5.79
2023-02-02T06:36:43.555Z,5.74
2023-02-02T06:39:11.961Z,5.73
2023-02-02T06:41:40.600Z,5.72
2023-02-02T06:44:09.271Z,5.80
2023-02-02T06:46:37.751Z,5.81
2023-02-02T06:49:07.677Z,5.76
2023-02-02T06:51:36.124Z,5.78
2023-02-02T06:54:04.894Z,5.75
2023-02-02T06:56:33.360Z,5.81
2023-02-02T06:59:01.821Z,5.82
2023-02-02T07:01:30.579Z,5.86
2023-02-02T07:03:59.361Z,5.81
2023-02-02T07:06:29.959Z,5.83
2023-02-02T07:09:05.368Z,5.81
2023-02-02T07:11:37.577Z,5.80
2023-02-02T07:14:09.505Z,5.78
2023-02-02T07:16:38.094Z,5.80
2023-02-02T07:19:06.607Z,5.75
2023-02-02T07:21:36.695Z,5.78
2023-02-02T07:24:07.347Z,5.83
2023-02-02T07:26:37.056Z,5.84
2023-02-02T07:29:06.664Z,5.84
2023-02-02T07:31:36.776Z,5.84
2023-02-02T07:34:05.560Z,5.82
2023-02-02T07:36:36.150Z,5.87
2023-02-02T07:39:06.936Z,5.86
2023-02-02T07:41:37.343Z,5.87
2023-02-02T07:44:07.196Z,5.90
2023-02-02T07:46:35.678Z,5.93
2023-02-02T07:49:06.049Z,5.97
2023-02-02T07:51:38.062Z,5.87
2023-02-02T07:54:08.564Z,5.90
2023-02-02T07:56:39.475Z,5.91
2023-02-02T07:59:08.115Z,5.91
2023-02-02T08:01:36.632Z,5.89
2023-02-02T08:04:05.547Z,5.92
2023-02-02T08:06:45.824Z,5.95
2023-02-02T08:09:14.654Z,6.05
2023-02-02T08:11:44.547Z,5.98
2023-02-02T08:14:15.829Z,6.01
2023-02-02T08:16:50.528Z,5.94
2023-02-02T08:19:24.331Z,5.98
2023-02-02T08:21:56.622Z,5.98
2023-02-02T08:24:26.615Z,6.02
2023-02-02T08:27:06.384Z,6.05
2023-02-02T08:29:40.790Z,6.08
2023-02-02T08:32:15.986Z,6.07
2023-02-02T08:34:56.323Z,5.98
2023-02-02T08:37:30.684Z,6.02
2023-02-02T08:40:00.716Z,6.01
2023-02-02T08:42:32.942Z,6.02
2023-02-02T08:46:01.492Z,6.02
2023-02-02T08:48:11.732Z,6.02
2023-02-02T08:50:44.680Z,6.11
2023-02-02T08:53:14.647Z,6.04
2023-02-02T08:55:43.469Z,6.08
2023-02-02T08:58:11.893Z,6.08
2023-02-02T09:00:40.548Z,5.99
2023-02-02T09:03:09.251Z,6.00
2023-02-02T09:05:39.126Z,6.03
2023-02-02T09:08:07.560Z,6.07
2023-02-02T09:10:55.097Z,6.04
2023-02-02T09:16:29.904Z,6.09
2023-02-02T09:19:05.669Z,6.07
2023-02-02T09:21:41.551Z,6.06
2023-02-02T09:24:16.353Z,6.10
2023-02-02T09:26:49.468Z,6.06
2023-02-02T09:29:18.880Z,6.10
2023-02-02T09:31:47.951Z,6.10
2023-02-02T09:34:22.384Z,6.10
2023-02-02T09:36:57.379Z,6.18
2023-02-02T09:39:30.395Z,6.28
2023-02-02T09:42:29.427Z,6.32
2023-02-02T09:45:20.129Z,6.32
2023-02-02T09:47:57.633Z,6.36
2023-02-02T09:50:40.566Z,6.36
2023-02-02T09:53:16.907Z,6.30
2023-02-02T09:55:47.612Z,6.22
2023-02-02T09:58:23.019Z,6.19
2023-02-02T10:01:00.374Z,6.20
2023-02-02T10:03:34.566Z,6.18
2023-02-02T10:06:08.723Z,6.23
2023-02-02T10:08:43.202Z,6.22
2023-02-02T10:11:28.444Z,6.20
2023-02-02T10:14:03.882Z,6.23
2023-02-02T10:16:35.117Z,6.20
2023-02-02T10:19:05.714Z,6.18
2023-02-02T10:21:41.870Z,6.23
2023-02-02T10:24:18.651Z,6.22
2023-02-02T10:26:51.506Z,6.28
2023-02-02T10:29:48.121Z,6.23
2023-02-02T10:32:24.723Z,6.20
2023-02-02T10:35:14.546Z,6.19
2023-02-02T10:37:50.312Z,6.23
2023-02-02T10:40:32.720Z,6.26
2023-02-02T10:43:47.995Z,6.32
2023-02-02T10:46:23.967Z,6.21
2023-02-02T10:49:10.097Z,6.27
2023-02-02T10:51:41.119Z,6.25
2023-02-02T10:54:26.034Z,6.18
2023-02-02T10:56:59.998Z,6.21
2023-02-02T10:59:33.444Z,6.26
2023-02-02T11:02:18.998Z,6.29
2023-02-02T11:05:06.968Z,6.25
2023-02-02T11:07:37.767Z,6.28
2023-02-02T11:10:12.105Z,6.38
2023-02-02T11:12:46.664Z,6.38
2023-02-02T11:15:26.803Z,6.35
2023-02-02T11:17:57.037Z,6.43
2023-02-02T11:20:33.559Z,6.36
2023-02-02T11:23:04.586Z,6.40
2023-02-02T11:25:35.496Z,6.31
2023-02-02T11:28:18.731Z,6.36
2023-02-02T11:30:50.467Z,6.28
2023-02-02T11:33:29.002Z,6.30
2023-02-02T11:36:01.193Z,6.30
2023-02-02T11:38:30.512Z,6.27
2023-02-02T11:41:03.663Z,6.29
2023-02-02T11:43:40.917Z,6.26
2023-02-02T11:46:19.876Z,6.33
2023-02-02T11:48:56.161Z,6.34
2023-02-02T11:51:27.121Z,6.40
2023-02-02T11:54:06.167Z,6.38
2023-02-02T11:56:36.536Z,6.30
2023-02-02T11:59:06.260Z,6.30
2023-02-02T12:01:36.934Z,6.27
2023-02-02T12:04:25.488Z,6.24
2023-02-02T12:06:54.410Z,6.24
2023-02-02T12:09:25.143Z,6.25
2023-02-02T12:12:02.311Z,6.27
2023-02-02T12:14:43.460Z,6.29
2023-02-02T12:17:26.474Z,6.40
2023-02-02T12:20:19.561Z,6.41
2023-02-02T12:23:09.543Z,6.42
2023-02-02T12:26:02.520Z,6.41
2023-02-02T12:28:50.294Z,6.40
2023-02-02T12:31:30.122Z,6.47
2023-02-02T12:34:11.526Z,6.55
2023-02-02T12:36:54.029Z,6.50
2023-02-02T12:39:32.101Z,6.49
2023-02-02T12:42:23.666Z,6.41
2023-02-02T12:45:20.932Z,6.47
2023-02-02T12:48:02.269Z,6.41
2023-02-02T12:50:42.585Z,6.41
2023-02-02T12:53:37.961Z,6.49
2023-02-02T12:56:20.856Z,6.43
2023-02-02T12:59:00.741Z,6.40
2023-02-02T13:01:41.844Z,6.41
2023-02-02T13:04:33.805Z,6.38
2023-02-02T13:07:30.884Z,6.39
2023-02-02T13:10:19.606Z,6.43
2023-02-02T13:12:54.060Z,6.41
2023-02-02T13:15:25.069Z,6.39
2023-02-02T13:17:56.106Z,6.47
2023-02-02T13:20:36.086Z,6.58
2023-02-02T13:23:10.840Z,6.57
2023-02-02T13:25:48.726Z,6.59
2023-02-02T13:28:26.531Z,6.56
2023-02-02T13:31:00.416Z,6.71
2023-02-02T13:33:34.037Z,6.68
2023-02-02T13:36:08.373Z,6.63
2023-02-02T13:38:42.170Z,6.63
2023-02-02T13:41:13.966Z,6.75
2023-02-02T13:43:53.777Z,6.76
2023-02-02T13:46:30.724Z,6.72
2023-02-02T13:49:06.741Z,6.70
2023-02-02T13:51:46.612Z,6.70
2023-02-02T13:54:50.618Z,6.75
2023-02-02T13:57:42.253Z,6.76
2023-02-02T14:00:18.424Z,6.82
2023-02-02T14:02:50.304Z,6.78
2023-02-02T14:05:26.022Z,6.75
2023-02-02T14:08:02.136Z,6.89
2023-02-02T14:10:34.932Z,6.76
2023-02-02T14:13:35.217Z,6.83
2023-02-02T14:16:07.027Z,6.83
2023-02-02T14:18:54.444Z,6.86
2023-02-02T14:21:56.404Z,6.79
2023-02-02T14:24:45.988Z,6.81
2023-02-02T14:28:01.563Z,6.70
2023-02-02T14:30:35.224Z,6.64
2023-02-02T14:33:38.495Z,6.77
2023-02-02T14:36:16.842Z,6.72
2023-02-02T14:39:04.870Z,6.75
2023-02-02T14:42:06.283Z,6.69
2023-02-02T14:44:38.206Z,6.79
2023-02-02T14:47:42.381Z,6.78
2023-02-02T14:50:22.425Z,6.72
2023-02-02T14:53:01.866Z,6.74
2023-02-02T14:55:32.050Z,6.67
2023-02-02T14:58:06.918Z,6.66
2023-02-02T15:01:09.687Z,6.67
2023-02-02T15:03:53.232Z,6.61
2023-02-02T15:06:35.022Z,6.64
2023-02-02T15:09:36.839Z,6.70
2023-02-02T15:12:20.199Z,6.74
2023-02-02T15:14:52.800Z,6.74
2023-02-02T15:17:29.072Z,6.68
2023-02-02T15:20:09.658Z,6.69
2023-02-02T15:22:47.486Z,6.78
2023-02-02T15:25:22.978Z,6.66
2023-02-02T15:27:58.513Z,6.76
2023-02-02T15:30:33.608Z,6.79
2023-02-02T15:33:08.848Z,6.78
2023-02-02T15:35:38.378Z,6.74
2023-02-02T15:38:16.371Z,6.65
2023-02-02T15:40:46.236Z,6.61
2023-02-02T15:43:17.986Z,6.67
2023-02-02T15:45:54.138Z,6.61
2023-02-02T15:48:27.007Z,6.67
2023-02-02T15:50:56.125Z,6.69
2023-02-02T15:53:29.641Z,6.69
2023-02-02T15:55:58.495Z,6.62
2023-02-02T15:58:33.291Z,6.69
2023-02-02T16:01:07.997Z,6.59
2023-02-02T16:03:47.109Z,6.66
2023-02-02T16:06:16.469Z,6.59
2023-02-02T16:08:47.407Z,6.57
2023-02-02T16:11:23.248Z,6.61
2023-02-02T16:14:01.669Z,6.64
2023-02-02T16:16:32.139Z,6.71
2023-02-02T16:19:12.866Z,6.66
2023-02-02T16:21:47.727Z,6.68
2023-02-02T16:24:33.176Z,6.67
2023-02-02T16:27:03.946Z,6.59
2023-02-02T16:29:34.110Z,6.55
2023-02-02T16:32:02.965Z,6.61
2023-02-02T16:34:49.269Z,6.67
2023-02-02T16:37:25.444Z,6.57
2023-02-02T16:39:58.498Z,6.63
2023-02-02T16:42:36.573Z,6.63
2023-02-02T16:45:07.117Z,6.66
2023-02-02T16:47:40.248Z,6.65
2023-02-02T16:50:28.616Z,6.63
2023-02-02T16:53:02.220Z,6.59
2023-02-02T16:55:50.040Z,6.66
2023-02-02T16:58:24.084Z,6.56
2023-02-02T17:01:15.362Z,6.66
2023-02-02T17:03:52.810Z,6.65
2023-02-02T17:06:46.193Z,6.63
2023-02-02T17:09:34.374Z,6.70
2023-02-02T17:12:33.248Z,6.62
2023-02-02T17:15:24.442Z,6.66
2023-02-02T17:17:53.620Z,6.65
2023-02-02T17:20:23.095Z,6.64
2023-02-02T17:22:55.534Z,6.58
2023-02-02T17:25:30.858Z,6.59
2023-02-02T17:28:01.905Z,6.63
2023-02-02T17:30:31.552Z,6.57
2023-02-02T17:33:00.232Z,6.57
2023-02-02T17:35:39.929Z,6.63
2023-02-02T17:38:17.425Z,6.56
2023-02-02T17:40:46.041Z,6.66
2023-02-02T17:43:16.090Z,6.64
2023-02-02T17:45:44.896Z,6.60
2023-02-02T17:48:14.704Z,6.63
2023-02-02T17:50:44.245Z,6.65
2023-02-02T17:53:13.903Z,6.64
2023-02-02T17:55:44.199Z,6.62
2023-02-02T17:58:17.416Z,6.74
2023-02-02T18:00:47.665Z,6.73
2023-02-02T18:03:21.048Z,6.67
2023-02-02T18:05:51.298Z,6.60
2023-02-02T18:08:20.262Z,6.64
2023-02-02T18:10:48.702Z,6.68
2023-02-02T18:13:20.829Z,6.65
2023-02-02T18:15:49.840Z,6.70
2023-02-02T18:18:19.805Z,6.66
2023-02-02T18:20:50.245Z,6.63
2023-02-02T18:23:20.067Z,6.61
2023-02-02T18:25:48.641Z,6.62
2023-02-02T18:28:18.673Z,6.63
2023-02-02T18:30:48.143Z,6.62
2023-02-02T18:33:19.767Z,6.62
2023-02-02T18:35:49.688Z,6.69
2023-02-02T18:38:19.735Z,6.65
2023-02-02T18:40:55.989Z,6.65
2023-02-02T18:43:26.076Z,6.59
2023-02-02T18:46:00.340Z,6.58
2023-02-02T18:48:30.074Z,6.58
2023-02-02T18:50:58.689Z,6.60
2023-02-02T18:53:27.413Z,6.63
2023-02-02T18:55:56.157Z,6.64
2023-02-02T18:58:27.604Z,6.66
2023-02-02T19:00:56.497Z,6.70
2023-02-02T19:03:25.184Z,6.65
2023-02-02T19:06:11.126Z,6.64
2023-02-02T19:08:39.989Z,6.65
2023-02-02T19:11:15.506Z,6.70
2023-02-02T19:13:46.001Z,6.67
2023-02-02T19:16:22.131Z,6.66
2023-02-02T19:18:51.155Z,6.74
2023-02-02T19:21:19.711Z,6.78
2023-02-02T19:23:48.653Z,6.66
2023-02-02T19:26:24.832Z,6.65
2023-02-02T19:28:58.612Z,6.78
2023-02-02T19:31:27.531Z,6.66
2023-02-02T19:33:56.613Z,6.69
2023-02-02T19:36:27.696Z,6.72
2023-02-02T19:39:02.358Z,6.70
2023-02-02T19:41:31.661Z,6.75
2023-02-02T19:44:10.477Z,6.78
2023-02-02T19:46:43.329Z,6.82
2023-02-02T19:49:14.519Z,6.78
2023-02-02T19:51:48.646Z,6.81
2023-02-02T19:54:33.357Z,6.74
2023-02-02T19:57:07.414Z,6.71
2023-02-02T19:59:37.448Z,6.76
2023-02-02T20:02:30.279Z,6.75
2023-02-02T20:05:02.928Z,6.79
2023-02-02T20:07:31.909Z,6.82
2023-02-02T20:10:16.066Z,6.84
2023-02-02T20:12:44.783Z,6.80
2023-02-02T20:15:27.175Z,6.86
2023-02-02T20:17:59.057Z,6.78
2023-02-02T20:20:30.088Z,6.82
2023-02-02T20:22:58.917Z,6.83
2023-02-02T20:25:29.174Z,6.80
2023-02-02T20:28:07.893Z,6.78
2023-02-02T20:30:38.080Z,6.84
2023-02-02T20:33:21.882Z,6.82
2023-02-02T20:35:51.479Z,6.86
2023-02-02T20:38:23.785Z,6.86
2023-02-02T20:40:53.175Z,6.82
2023-02-02T20:43:22.104Z,6.84
2023-02-02T20:45:55.035Z,6.82
2023-02-02T20:48:25.637Z,6.82
2023-02-02T20:50:54.363Z,6.80
2023-02-02T20:53:23.250Z,6.87
2023-02-02T20:55:57.472Z,6.80
2023-02-02T20:58:26.541Z,6.81
2023-02-02T21:00:56.926Z,6.79
2023-02-02T21:03:25.793Z,6.90
2023-02-02T21:05:54.565Z,6.87
2023-02-02T21:08:39.979Z,6.81
2023-02-02T21:11:10.393Z,6.83
2023-02-02T21:13:47.558Z,6.85
2023-02-02T21:16:20.746Z,6.86
2023-02-02T21:18:51.517Z,6.96
2023-02-02T21:21:22.937Z,6.88
2023-02-02T21:23:56.577Z,6.85
2023-02-02T21:26:30.526Z,6.85
2023-02-02T21:29:04.944Z,6.89
2023-02-02T21:31:40.659Z,6.91
2023-02-02T21:34:11.367Z,6.99
2023-02-02T21:36:44.619Z,6.94
2023-02-02T21:39:22.236Z,6.96
2023-02-02T21:41:54.226Z,6.96
2023-02-02T21:44:24.145Z,7.02
2023-02-02T21:46:57.909Z,6.91
2023-02-02T21:49:29.067Z,6.98
2023-02-02T21:52:03.342Z,6.99
2023-02-02T21:54:39.018Z,7.03
2023-02-02T21:57:17.550Z,6.96
2023-02-02T21:59:47.535Z,7.00
2023-02-02T22:02:38.299Z,7.02
2023-02-02T22:05:17.289Z,7.03
2023-02-02T22:07:46.800Z,6.98
2023-02-02T22:10:36.631Z,6.98
2023-02-02T22:13:21.868Z,6.98
2023-02-02T22:15:54.345Z,7.01
2023-02-02T22:18:26.881Z,6.96
2023-02-02T22:20:56.846Z,7.02
2023-02-02T22:23:28.258Z,7.04
2023-02-02T22:25:59.122Z,7.07
2023-02-02T22:28:30.882Z,7.12
2023-02-02T22:31:01.102Z,7.16
2023-02-02T22:33:32.487Z,7.08
2023-02-02T22:36:00.958Z,7.14
2023-02-02T22:38:29.396Z,7.09
2023-02-02T22:40:58.119Z,7.10
2023-02-02T22:43:26.697Z,7.08
2023-02-02T22:45:55.214Z,7.08
2023-02-02T22:48:23.698Z,7.10
2023-02-02T22:50:53.464Z,7.10
2023-02-02T22:53:22.062Z,7.21
2023-02-02T22:55:56.287Z,7.27
2023-02-02T22:58:25.904Z,7.27
2023-02-02T23:00:54.385Z,7.25
2023-02-02T23:03:23.071Z,7.24
2023-02-02T23:05:52.914Z,7.20
2023-02-02T23:08:21.476Z,7.25
2023-02-02T23:10:49.976Z,7.22
2023-02-02T23:13:20.164Z,7.19
2023-02-02T23:15:48.857Z,7.27
2023-02-02T23:18:17.483Z,7.31
2023-02-02T23:20:48.691Z,7.33
2023-02-02T23:23:18.597Z,7.29
2023-02-02T23:25:47.010Z,7.33
2023-02-02T23:28:15.698Z,7.30
2023-02-02T23:30:44.217Z,7.40
2023-02-02T23:33:12.726Z,7.36
2023-02-02T23:35:41.112Z,7.31
2023-02-02T23:38:09.688Z,7.31
2023-02-02T23:40:39.881Z,7.36
2023-02-02T23:43:08.444Z,7.34
2023-02-02T23:45:38.780Z,7.35
2023-02-02T23:48:08.492Z,7.39
2023-02-02T23:50:38.394Z,7.36
2023-02-02T23:53:08.669Z,7.38
2023-02-02T23:55:39.017Z,7.42
2023-02-02T23:58:07.701Z,7.35
